Flight Track Log - Related Links

Times and Time Zones

All times are in EDT time to prevent confusion due to time zone crossing. See the LXJ342 flight status page for this flight to view local times or setup timezone preferences in your user account.


Time Position Orientation Groundspeed Altitude Reporting Facility
EDT Latitude Longitude Course Direction KTS MPH feet Rate Location/Type
Sun 08:57:46 AM 41.3103 -95.9011 80° East 162 186 1,600  Level Minneapolis Center
Sun 08:58:21 AM 41.3322 -95.9014 359° North 188 216 2,900 2,222 Climbing Minneapolis Center
Sun 08:59:34 AM 41.3836 -95.8833 15° North 213 245 5,600 3,313 Climbing Minneapolis Center
Sun 09:00:35 AM 41.3892 -95.7842 86° East 225 259 10,300 4,328 Climbing Minneapolis Center
Sun 09:01:36 AM 41.3928 -95.6639 88° East 265 305 14,400 3,639 Climbing Minneapolis Center
Sun 09:02:37 AM 41.3961 -95.5531 88° East 295 339 17,700 2,975 Climbing Minneapolis Center
Sun 09:03:00 AM 41.4470 -94.8108 80° East  Level Estimated
Sun 09:03:37 AM 41.3992 -95.4372 88° East 309 356 20,400  Level Minneapolis Center
Sun 09:04:38 AM 41.4025 -95.3097 88° East 336 387 22,700 2,164 Climbing Minneapolis Center
Sun 09:05:39 AM 41.4064 -95.1756 88° East 357 411 24,800 1,967 Climbing Minneapolis Center
Sun 09:06:40 AM 41.4100 -95.0331 88° East 379 436 26,700 1,820 Climbing Minneapolis Center
Sun 09:07:41 AM 41.4139 -94.8853 88° East 394 453 28,500 1,770 Climbing Minneapolis Center
Sun 09:08:42 AM 41.4175 -94.7350 88° East 404 465 30,300 1,736 Climbing Minneapolis Center
Sun 09:09:42 AM 41.4211 -94.5831 88° East 409 471 32,000 1,388 Climbing Minneapolis Center
Sun 09:10:43 AM 41.4258 -94.4314 88° East 410 472 33,100 1,033 Climbing Minneapolis Center
Sun 09:11:44 AM 41.4664 -94.2847 70° East 420 483 34,100 1,033 Climbing Minneapolis Center
Sun 09:12:45 AM 41.5092 -94.1272 70° East 420 483 35,200 984 Climbing Minneapolis Center
Sun 09:13:46 AM 41.5494 -93.9800 70° East 422 486 36,100 885 Climbing Minneapolis Center
Sun 09:14:47 AM 41.5903 -93.8333 70° East 424 488 37,000 443 Climbing Minneapolis Center
Sun 09:15:48 AM 41.6325 -93.6825 69° East 430 495 37,000  Level Minneapolis Center
Sun 09:16:48 AM 41.6750 -93.5283 70° East 440 506 37,000  Level Minneapolis Center
Sun 09:17:49 AM 41.7183 -93.3717 70° East 447 514 37,000  Level Minneapolis Center
Sun 09:18:50 AM 41.7356 -93.2092 82° East 444 511 37,000  Level Minneapolis Center
Sun 09:19:51 AM 41.7494 -93.0475 83° East 442 509 37,000  Level Minneapolis Center
Sun 09:20:52 AM 41.7633 -92.8861 83° East 440 506 37,000  Level Minneapolis Center
Sun 09:21:53 AM 41.7781 -92.7103 84° East 439 505 37,000  Level Minneapolis Center
Sun 09:22:54 AM 41.7917 -92.5500 83° East 439 505 37,000  Level Minneapolis Center
Sun 09:23:16 AM 41.7964 -92.4847 84° East 436 502 37,000 -429 Level Chicago Center
Sun 09:24:18 AM 41.8092 -92.3272 84° East 432 497 36,400 -780 Descending Chicago Center
Sun 09:25:19 AM 41.8219 -92.1678 84° East 434 499 35,400 -1,122 Descending Chicago Center
Sun 09:26:21 AM 41.8364 -91.9786 84° East 432 497 34,100 -1,220 Descending Chicago Center
Sun 09:27:22 AM 41.8492 -91.8169 84° East 440 506 32,900 -1,122 Descending Chicago Center
Sun 09:28:24 AM 41.8608 -91.6575 84° East 437 503 31,800 -1,073 Descending Chicago Center
Sun 09:29:25 AM 41.8722 -91.4961 85° East 439 505 30,700 -1,122 Descending Chicago Center
Sun 09:30:27 AM 41.8850 -91.3300 84° East 450 518 29,500 -1,171 Descending Chicago Center
Sun 09:31:28 AM 41.8958 -91.1658 85° East 449 517 28,300 -1,220 Descending Chicago Center
Sun 09:32:30 AM 41.9097 -90.9731 84° East 442 509 27,000 -1,210 Descending Chicago Center
Sun 09:33:32 AM 41.9192 -90.8167 85° East 431 496 25,800 -1,122 Descending Chicago Center
Sun 09:34:33 AM 41.9294 -90.6606 85° East 427 491 24,700 -1,122 Descending Chicago Center
Sun 09:35:35 AM 41.9444 -90.5114 82° East 413 475 23,500 -1,561 Descending Chicago Center
Sun 09:36:36 AM 41.9781 -90.3661 73° East 409 471 21,500 -2,000 Descending Chicago Center
Sun 09:37:38 AM 42.0153 -90.1983 73° East 394 453 19,400 -1,839 Descending Chicago Center
Sun 09:38:40 AM 42.0444 -90.0653 74° East 379 436 17,700 -1,561 Descending Chicago Center
Sun 09:39:41 AM 42.0708 -89.9383 74° East 362 417 16,200 -1,561 Descending Chicago Center
Sun 09:40:43 AM 42.0989 -89.8006 75° East 352 405 14,500 -1,597 Descending Chicago Center
Sun 09:41:45 AM 42.1258 -89.6786 73° East 342 394 12,900 -1,512 Descending Chicago Center
Sun 09:42:46 AM 42.1508 -89.5553 75° East 341 392 11,400 -1,171 Descending Chicago Center
Sun 09:43:48 AM 42.1775 -89.4350 73° East 336 387 10,500 -683 Descending Chicago Center
Sun 09:44:49 AM 42.2036 -89.3119 74° East 340 391 10,000 -293 Descending Chicago Center
Sun 09:45:51 AM 42.2286 -89.1933 74° East 333 383 9,900 -1,210 Descending Chicago Center
Sun 09:46:53 AM 42.2528 -89.0803 74° East 276 318 7,500 -2,146 Descending Chicago Center
Sun 09:47:54 AM 42.2739 -88.9842 73° East 268 308 5,500 -1,220 Descending Chicago Center
Sun 09:48:56 AM 42.2922 -88.8931 75° East 257 296 5,000 -244 Descending Chicago Center
Sun 09:49:57 AM 42.3097 -88.8111 74° East 253 291 5,000  Level Chicago Center
Sun 09:50:59 AM 42.3336 -88.6994 74° East 257 296 5,000  Level Chicago Center
Sun 09:52:01 AM 42.3500 -88.6158 75° East 258 297 5,000 -195 Level Chicago Center
Sun 09:53:02 AM 42.3694 -88.5217 74° East 258 297 4,600 -488 Descending Chicago Center
Sun 09:54:04 AM 42.3494 -88.4192 105° East 246 283 4,000 -387 Descending Chicago Center
Sun 09:55:06 AM 42.3300 -88.3383 108° East 245 282 3,800 -488 Descending Chicago Center
Sun 09:56:07 AM 42.3117 -88.2742 111° Southeast 204 235 3,000 -683 Descending Chicago Center
Sun 09:57:09 AM 42.2919 -88.2086 112° Southeast 190 219 2,400 -293 Descending Chicago Center
Sun 09:58:10 AM 42.2661 -88.1253 113° Southeast 198 228 2,400  Level Chicago Center
Sun 09:59:12 AM 42.2483 -88.0547 109° East 197 227 2,400  Level Chicago Center
Sun 10:00:14 AM 42.2300 -87.9894 111° Southeast 194 223 2,400 -98 Level Chicago Center
Sun 10:01:15 AM 42.1978 -87.9475 136° Southeast 184 212 2,200 -390 Descending Chicago Center
Sun 10:02:17 AM 42.1567 -87.9269 160° South 163 188 1,600 -581 Descending Chicago Center
Sun 10:04:00 AM 42.1143 -87.9015 132° Southeast  Level Estimated

Login

Don't have an account? Register now (free) for customized features, flight alerts, and more!